Time;durP1;ratioP1;P1;durP2;ratioP2;P2;SDS_P1;SDS_P2;PMS_P1;PMS_P2;Temp;Humidity;BMP_temperature;BMP_pressure;BME280_temperature;BME280_humidity;BME280_pressure;Samples;Min_cycle;Max_cycle;Signal;HPM_P1;HPM_P2
2022/01/03 00:00:21;;;;;;;54.55;33.30;;;5.90;99.90;;;;;;4917568;29;20111;-74
2022/01/03 00:02:47;;;;;;;61.72;35.42;;;5.90;99.90;;;;;;4917351;29;20028;-75
2022/01/03 00:05:13;;;;;;;62.58;34.50;;;6.00;99.90;;;;;;4917268;29;20036;-74
2022/01/03 00:07:43;;;;;;;59.63;33.35;;;6.00;99.90;;;;;;4917452;29;20036;-74
2022/01/03 00:10:11;;;;;;;54.22;31.02;;;6.00;99.90;;;;;;4917403;29;20515;-75
2022/01/03 00:12:38;;;;;;;54.38;32.97;;;6.10;99.90;;;;;;4917431;29;20092;-75
2022/01/03 00:15:06;;;;;;;55.45;32.53;;;6.10;99.90;;;;;;4917414;29;20032;-75
2022/01/03 00:17:32;;;;;;;54.55;32.60;;;6.10;99.90;;;;;;4917087;29;20103;-75
2022/01/03 00:19:58;;;;;;;58.25;33.42;;;6.10;99.90;;;;;;4916469;29;20135;-75
2022/01/03 00:22:24;;;;;;;49.38;28.33;;;6.20;99.90;;;;;;4898600;29;20044;-75
2022/01/03 00:25:04;;;;;;;46.42;27.33;;;6.20;99.90;;;;;;4898812;29;20032;-75
2022/01/03 00:27:44;;;;;;;51.28;30.02;;;6.20;99.90;;;;;;4916724;29;20024;-74
2022/01/03 00:30:11;;;;;;;48.00;28.17;;;6.20;99.90;;;;;;4916906;29;20043;-75
2022/01/03 00:32:38;;;;;;;56.03;31.77;;;6.20;99.90;;;;;;4916839;29;20040;-75
2022/01/03 00:35:04;;;;;;;54.05;31.35;;;6.30;99.90;;;;;;4917028;29;20091;-75
2022/01/03 00:37:33;;;;;;;52.72;28.55;;;6.30;99.90;;;;;;4916949;29;20107;-74
2022/01/03 00:40:00;;;;;;;50.10;30.08;;;6.30;99.90;;;;;;4916554;29;20050;-74
2022/01/03 00:42:26;;;;;;;50.60;28.63;;;6.30;99.90;;;;;;4915538;29;20035;-75
2022/01/03 00:44:55;;;;;;;54.28;28.58;;;6.30;99.90;;;;;;4915871;29;20032;-75
2022/01/03 00:47:20;;;;;;;49.90;28.05;;;6.30;99.90;;;;;;4915989;29;20103;-75
2022/01/03 00:49:47;;;;;;;46.13;28.15;;;6.40;99.90;;;;;;4914793;29;20052;-74
2022/01/03 00:52:13;;;;;;;41.85;24.77;;;6.40;99.90;;;;;;4915872;29;20051;-75
2022/01/03 00:54:39;;;;;;;42.85;25.13;;;6.40;99.90;;;;;;4898928;29;20477;-75
2022/01/03 00:57:11;;;;;;;42.85;24.40;;;6.40;99.90;;;;;;4915803;29;20032;-75
2022/01/03 00:59:42;;;;;;;;;;;6.30;99.90;;;;;;4915668;29;20115;-74
2022/01/03 01:02:10;;;;;;;41.25;23.92;;;6.40;99.90;;;;;;4915825;29;19914;-75
2022/01/03 01:04:36;;;;;;;42.53;24.80;;;6.50;99.90;;;;;;4915485;29;20032;-74
2022/01/03 01:07:06;;;;;;;40.70;24.48;;;6.50;99.90;;;;;;4915053;29;20036;-75
2022/01/03 01:09:34;;;;;;;42.35;23.27;;;6.60;99.90;;;;;;4915858;29;20016;-74
2022/01/03 01:12:00;;;;;;;35.25;21.75;;;6.60;99.90;;;;;;4916153;29;20027;-74
2022/01/03 01:14:28;;;;;;;41.05;22.30;;;6.60;99.90;;;;;;4916220;29;20024;-75
2022/01/03 01:16:54;;;;;;;37.78;21.63;;;6.70;99.90;;;;;;4916345;29;20020;-75
2022/01/03 01:19:22;;;;;;;38.58;21.73;;;6.70;99.90;;;;;;4916143;29;20127;-74
2022/01/03 01:21:51;;;;;;;38.42;21.15;;;6.70;99.90;;;;;;4916276;29;20040;-75
2022/01/03 01:24:20;;;;;;;40.67;21.95;;;6.70;99.90;;;;;;4899140;29;20044;-74
2022/01/03 01:29:31;;;;;;;40.75;21.85;;;6.70;99.90;;;;;;4917164;29;20107;-74
2022/01/03 01:32:01;;;;;;;36.50;20.85;;;6.70;99.90;;;;;;4919865;29;20481;-75
2022/01/03 01:34:29;;;;;;;39.28;23.25;;;6.70;99.90;;;;;;4919942;29;20072;-75
2022/01/03 01:36:57;;;;;;;41.75;24.02;;;6.70;99.90;;;;;;4920180;29;20025;-74
2022/01/03 01:39:29;;;;;;;41.15;23.75;;;6.80;99.90;;;;;;4919515;29;20043;-75
2022/01/03 01:42:02;;;;;;;45.45;25.77;;;6.90;99.90;;;;;;4918201;29;20029;-74
2022/01/03 01:44:32;;;;;;;46.63;24.75;;;6.90;99.90;;;;;;4918179;29;20020;-75
2022/01/03 01:47:03;;;;;;;41.78;23.95;;;7.00;99.90;;;;;;4929786;29;20127;-75
2022/01/03 01:49:30;;;;;;;42.78;24.90;;;7.10;99.90;;;;;;4917842;29;20099;-75
2022/01/03 01:51:59;;;;;;;43.25;23.80;;;7.10;99.90;;;;;;4936501;29;20499;-75
2022/01/03 01:54:33;;;;;;;42.35;24.75;;;7.20;99.90;;;;;;4937495;29;20070;-74
2022/01/03 01:57:07;;;;;;;47.45;24.75;;;7.20;99.90;;;;;;4933685;29;20039;-75
2022/01/03 02:00:10;;;;;;;43.70;24.35;;;7.30;99.90;;;;;;4919508;29;20024;-75
2022/01/03 02:02:57;;;;;;;43.15;24.75;;;7.40;99.90;;;;;;4899930;29;20396;-75
2022/01/03 02:05:29;;;;;;;46.47;25.73;;;7.30;99.90;;;;;;4928066;29;20028;-75
2022/01/03 02:08:00;;;;;;;41.83;24.98;;;7.40;99.90;;;;;;4938361;29;20059;-75
2022/01/03 02:10:33;;;;;;;43.80;25.90;;;7.40;99.90;;;;;;4904947;29;20084;-75
2022/01/03 02:13:01;;;;;;;42.47;25.88;;;7.40;99.90;;;;;;4919427;29;20051;-75
2022/01/03 02:15:27;;;;;;;48.95;27.48;;;7.50;99.90;;;;;;4919606;29;20031;-75
2022/01/03 02:17:53;;;;;;;50.03;27.80;;;7.50;99.90;;;;;;4919220;29;20056;-75
2022/01/03 02:20:26;;;;;;;48.45;27.88;;;7.50;99.90;;;;;;4919041;29;20087;-75
2022/01/03 02:22:53;;;;;;;52.33;27.73;;;7.50;99.90;;;;;;4918792;29;20024;-75
2022/01/03 02:25:20;;;;;;;51.15;29.10;;;7.60;99.90;;;;;;4928544;29;20039;-75
2022/01/03 02:27:48;;;;;;;44.97;26.70;;;7.60;99.90;;;;;;4925716;29;20028;-75
2022/01/03 02:30:16;;;;;;;51.75;29.45;;;7.60;99.90;;;;;;4931743;29;20050;-74
2022/01/03 02:32:43;;;;;;;59.53;33.30;;;7.70;99.90;;;;;;4937932;29;20024;-74
2022/01/03 02:35:10;;;;;;;47.38;27.88;;;7.70;99.90;;;;;;4937728;29;20020;-75
2022/01/03 02:37:37;;;;;;;50.53;29.17;;;7.70;99.90;;;;;;4936288;29;20023;-75
2022/01/03 02:40:04;;;;;;;47.92;26.92;;;7.80;99.90;;;;;;4918078;29;20119;-75
2022/01/03 02:42:30;;;;;;;54.38;29.65;;;7.80;99.90;;;;;;4917919;29;20040;-75
2022/01/03 02:45:04;;;;;;;50.38;30.08;;;7.80;99.90;;;;;;4925706;29;20032;-75
2022/01/03 02:47:29;;;;;;;48.85;28.35;;;7.80;99.90;;;;;;4928820;29;20079;-75
2022/01/03 02:49:55;;;;;;;51.15;28.70;;;7.90;99.90;;;;;;4937752;29;20024;-75
2022/01/03 02:52:21;;;;;;;52.13;28.92;;;7.90;99.90;;;;;;4935730;29;20042;-75
2022/01/03 02:54:48;;;;;;;53.15;30.83;;;7.90;99.90;;;;;;4928046;29;20024;-75
2022/01/03 02:57:14;;;;;;;56.63;29.13;;;7.90;99.90;;;;;;4918808;29;20032;-75
2022/01/03 02:59:40;;;;;;;53.13;31.10;;;7.90;99.90;;;;;;4934682;29;20428;-76
2022/01/03 03:02:06;;;;;;;53.70;31.55;;;7.90;99.90;;;;;;4903903;29;20032;-75
2022/01/03 03:04:32;;;;;;;57.63;30.20;;;7.90;99.90;;;;;;4924461;29;20426;-75
2022/01/03 03:06:58;;;;;;;49.30;28.73;;;7.90;99.90;;;;;;4928658;29;20040;-75
2022/01/03 03:09:23;;;;;;;47.70;29.65;;;7.90;99.90;;;;;;4932866;29;20027;-75
2022/01/03 03:11:49;;;;;;;52.53;31.30;;;7.90;99.90;;;;;;4919457;29;20381;-75
2022/01/03 03:14:15;;;;;;;52.55;31.25;;;7.90;99.90;;;;;;4918260;29;20108;-75
2022/01/03 03:16:42;;;;;;;51.80;30.30;;;7.90;99.90;;;;;;4919363;29;20036;-75
2022/01/03 03:19:09;;;;;;;52.15;30.10;;;7.90;99.90;;;;;;4919612;29;20397;-75
2022/01/03 03:21:35;;;;;;;53.78;29.85;;;7.90;99.90;;;;;;4917733;29;20536;-74
2022/01/03 03:24:00;;;;;;;55.38;30.75;;;7.90;99.90;;;;;;4932415;29;20032;-75
2022/01/03 03:26:26;;;;;;;59.50;31.65;;;7.90;99.90;;;;;;4935843;29;20366;-75
2022/01/03 03:28:52;;;;;;;57.90;32.75;;;7.90;99.90;;;;;;4921288;29;20055;-74
2022/01/03 03:31:18;;;;;;;56.75;31.27;;;7.90;99.90;;;;;;4936978;29;20155;-74
2022/01/03 03:33:44;;;;;;;51.78;29.45;;;8.00;99.90;;;;;;4937077;29;20031;-74
2022/01/03 03:36:09;;;;;;;52.33;31.48;;;8.00;99.90;;;;;;4921790;29;20504;-74
2022/01/03 03:38:35;;;;;;;51.90;30.60;;;8.00;99.90;;;;;;4915919;29;20024;-74
2022/01/03 03:41:01;;;;;;;55.88;31.42;;;8.00;99.90;;;;;;4915549;29;20504;-75
2022/01/03 03:43:30;;;;;;;56.58;30.13;;;8.00;99.90;;;;;;4898709;29;20035;-74
2022/01/03 03:45:56;;;;;;;54.88;30.38;;;8.00;99.90;;;;;;4916222;29;20091;-74
2022/01/03 03:48:22;;;;;;;53.70;30.60;;;8.10;99.90;;;;;;4929268;29;20485;-75
2022/01/03 03:50:48;;;;;;;59.20;30.88;;;8.10;99.90;;;;;;4921679;29;20028;-75
2022/01/03 03:53:14;;;;;;;53.20;30.70;;;8.10;99.90;;;;;;4917098;29;20028;-74
2022/01/03 03:55:39;;;;;;;52.88;30.58;;;8.10;99.90;;;;;;4917787;29;20087;-75
2022/01/03 03:58:05;;;;;;;55.55;29.70;;;8.10;99.90;;;;;;4917144;29;20028;-74
2022/01/03 04:00:32;;;;;;;57.25;31.75;;;8.10;99.90;;;;;;4917482;29;20032;-75
2022/01/03 04:02:58;;;;;;;53.78;31.00;;;8.10;99.90;;;;;;4917297;29;20032;-74
2022/01/03 04:05:24;;;;;;;62.35;31.42;;;8.10;99.90;;;;;;4917045;29;20110;-75
2022/01/03 04:07:50;;;;;;;59.72;31.00;;;8.10;99.90;;;;;;4917120;29;20031;-74
2022/01/03 04:10:16;;;;;;;58.25;30.92;;;8.10;99.90;;;;;;4917011;29;20028;-73
2022/01/03 04:12:43;;;;;;;55.08;31.58;;;8.20;99.90;;;;;;4917250;29;20027;-74
2022/01/03 04:15:09;;;;;;;54.55;31.88;;;8.20;99.90;;;;;;4916942;29;20469;-74
2022/01/03 04:17:35;;;;;;;60.13;32.17;;;8.20;99.90;;;;;;4916906;29;20543;-74
2022/01/03 04:20:03;;;;;;;58.22;32.70;;;8.20;99.90;;;;;;4916855;29;20123;-74
2022/01/03 04:22:28;;;;;;;60.35;31.05;;;8.20;99.90;;;;;;4917116;29;20370;-74
2022/01/03 04:24:54;;;;;;;62.72;32.80;;;8.30;99.90;;;;;;4917016;29;20148;-75
2022/01/03 04:27:20;;;;;;;56.28;32.25;;;8.20;99.90;;;;;;4916789;29;20086;-75
2022/01/03 04:29:46;;;;;;;59.85;32.33;;;8.30;99.90;;;;;;4916866;29;20028;-74
2022/01/03 04:32:11;;;;;;;62.17;33.65;;;8.30;99.90;;;;;;4916932;29;20104;-74
2022/01/03 04:34:37;;;;;;;60.00;32.83;;;8.30;99.90;;;;;;4916795;29;20604;-74
2022/01/03 04:37:03;;;;;;;58.53;32.30;;;8.30;99.90;;;;;;4916864;29;20032;-75
2022/01/03 04:39:29;;;;;;;60.92;32.33;;;8.30;99.90;;;;;;4916353;29;20503;-74
2022/01/03 04:41:54;;;;;;;59.67;32.53;;;8.30;99.90;;;;;;4916426;29;20103;-74
2022/01/03 04:44:20;;;;;;;62.85;34.25;;;8.30;99.90;;;;;;4916260;29;20477;-74
2022/01/03 04:46:46;;;;;;;61.38;33.55;;;8.30;99.90;;;;;;4916193;29;20039;-74
2022/01/03 04:49:12;;;;;;;58.42;33.30;;;8.30;99.90;;;;;;4916196;29;20027;-75
2022/01/03 04:51:39;;;;;;;65.10;33.42;;;8.30;99.90;;;;;;4916272;29;20035;-75
2022/01/03 04:54:05;;;;;;;61.53;34.78;;;8.30;99.90;;;;;;4916437;29;20115;-75
2022/01/03 04:56:33;;;;;;;60.58;33.13;;;8.40;99.90;;;;;;4916337;29;20112;-74
2022/01/03 04:58:59;;;;;;;64.93;35.83;;;8.30;99.90;;;;;;4916355;29;20016;-74
2022/01/03 05:01:25;;;;;;;63.65;34.30;;;8.40;99.90;;;;;;4916227;29;20024;-74
2022/01/03 05:03:52;;;;;;;58.03;33.70;;;8.40;99.90;;;;;;4898641;29;20496;-74
2022/01/03 05:06:19;;;;;;;63.25;34.22;;;8.30;99.90;;;;;;4916176;29;20048;-74
2022/01/03 05:08:45;;;;;;;60.38;34.53;;;8.40;99.90;;;;;;4916470;29;20111;-74
2022/01/03 05:11:11;;;;;;;68.45;36.30;;;8.40;99.90;;;;;;4916509;29;20118;-74
2022/01/03 05:13:37;;;;;;;66.70;38.08;;;8.40;99.90;;;;;;4916056;29;20417;-75
2022/01/03 05:16:03;;;;;;;68.63;36.72;;;8.40;99.90;;;;;;4915972;29;20028;-74
2022/01/03 05:18:29;;;;;;;70.18;36.85;;;8.40;99.90;;;;;;4916134;29;20052;-74
2022/01/03 05:20:56;;;;;;;68.00;37.65;;;8.40;99.90;;;;;;4915600;29;20536;-74
2022/01/03 05:23:21;;;;;;;62.55;35.03;;;8.40;99.90;;;;;;4915977;29;20051;-75
2022/01/03 05:25:47;;;;;;;63.83;36.58;;;8.40;99.90;;;;;;4915868;29;20086;-74
2022/01/03 05:28:13;;;;;;;73.03;38.70;;;8.40;99.90;;;;;;4915963;29;20055;-75
2022/01/03 05:30:40;;;;;;;68.70;37.25;;;8.40;99.90;;;;;;4916163;29;20465;-74
2022/01/03 05:33:07;;;;;;;68.53;37.88;;;8.40;99.90;;;;;;4916130;29;20552;-75
2022/01/03 05:35:33;;;;;;;71.82;37.45;;;8.40;99.90;;;;;;4916077;29;20032;-75
2022/01/03 05:37:58;;;;;;;74.28;38.45;;;8.40;99.90;;;;;;4915902;29;20020;-74
2022/01/03 05:40:24;;;;;;;79.43;38.65;;;8.40;99.90;;;;;;4898652;29;20068;-75
2022/01/03 05:42:51;;;;;;;68.75;37.25;;;8.40;99.90;;;;;;4915993;29;20025;-75
2022/01/03 05:45:17;;;;;;;73.45;39.00;;;8.50;99.90;;;;;;4916090;29;20504;-74
2022/01/03 05:47:45;;;;;;;74.30;39.25;;;8.40;99.90;;;;;;4915902;29;20044;-74
2022/01/03 05:50:11;;;;;;;79.97;41.88;;;8.40;99.90;;;;;;4915326;29;20056;-74
2022/01/03 05:52:37;;;;;;;79.32;41.17;;;8.50;99.90;;;;;;4934927;29;20086;-75
2022/01/03 05:55:05;;;;;;;75.65;40.70;;;8.50;99.90;;;;;;4934327;29;20027;-74
2022/01/03 05:57:30;;;;;;;78.68;40.35;;;8.50;99.90;;;;;;4934872;29;20022;-74
2022/01/03 05:59:56;;;;;;;74.32;40.33;;;8.50;99.90;;;;;;4932782;29;20036;-75
2022/01/03 06:02:24;;;;;;;81.97;42.17;;;8.50;99.90;;;;;;4933296;29;20396;-76
2022/01/03 06:07:19;;;;;;;81.20;40.58;;;8.50;99.90;;;;;;4934114;29;20430;-76
2022/01/03 06:09:45;;;;;;;82.80;40.97;;;8.50;99.90;;;;;;4934188;29;20024;-76
2022/01/03 06:12:11;;;;;;;78.95;40.00;;;8.50;99.90;;;;;;4933960;29;20039;-76
2022/01/03 06:14:37;;;;;;;76.25;39.33;;;8.50;99.90;;;;;;4930014;29;20028;-75
2022/01/03 06:17:05;;;;;;;82.97;40.05;;;8.50;99.90;;;;;;4917042;29;20115;-75
2022/01/03 06:19:35;;;;;;;78.07;40.67;;;8.50;99.90;;;;;;4917746;29;20552;-75
2022/01/03 06:22:02;;;;;;;72.45;38.72;;;8.50;99.90;;;;;;4901543;29;20032;-76
2022/01/03 06:24:28;;;;;;;74.20;38.45;;;8.60;99.90;;;;;;4918857;29;20024;-75
2022/01/03 06:26:54;;;;;;;74.18;39.80;;;8.60;99.90;;;;;;4918788;29;20047;-75
2022/01/03 06:29:20;;;;;;;75.13;36.90;;;8.50;99.90;;;;;;4902471;29;20062;-74
2022/01/03 06:31:47;;;;;;;81.00;42.45;;;8.50;99.90;;;;;;4918879;29;20092;-75
2022/01/03 06:34:13;;;;;;;77.80;40.47;;;8.50;99.90;;;;;;4918543;29;20032;-76
2022/01/03 06:36:39;;;;;;;83.20;41.67;;;8.50;99.90;;;;;;4901899;29;20135;-75
2022/01/03 06:39:06;;;;;;;84.50;41.33;;;8.60;99.90;;;;;;4918831;29;20047;-75
2022/01/03 06:41:32;;;;;;;79.57;40.25;;;8.60;99.90;;;;;;4918396;29;20039;-75
2022/01/03 06:43:58;;;;;;;83.20;40.53;;;8.60;99.90;;;;;;4919942;29;20385;-75
2022/01/03 06:46:24;;;;;;;73.85;40.75;;;8.60;99.90;;;;;;4919454;29;20046;-75
2022/01/03 06:48:49;;;;;;;76.57;40.05;;;8.60;99.90;;;;;;4918315;29;20083;-74
2022/01/03 06:51:16;;;;;;;72.93;40.38;;;8.60;99.90;;;;;;4917962;29;20035;-74
2022/01/03 06:53:42;;;;;;;80.93;39.90;;;8.60;99.90;;;;;;4917661;29;20103;-75
2022/01/03 06:56:09;;;;;;;86.55;41.72;;;8.60;99.90;;;;;;4918042;29;20485;-75
2022/01/03 06:58:35;;;;;;;88.88;41.92;;;8.60;99.90;;;;;;4901898;29;20123;-75
2022/01/03 07:01:02;;;;;;;86.47;42.90;;;8.60;99.90;;;;;;4918695;29;20032;-74
2022/01/03 07:03:28;;;;;;;87.22;43.40;;;8.60;99.90;;;;;;4917507;29;20035;-74
2022/01/03 07:05:53;;;;;;;91.25;43.95;;;8.60;99.90;;;;;;4917396;29;20040;-75
2022/01/03 07:08:22;;;;;;;87.13;45.65;;;8.60;99.90;;;;;;4918147;29;20028;-74
2022/01/03 07:10:49;;;;;;;92.35;46.70;;;8.60;99.90;;;;;;4918114;29;20043;-75
2022/01/03 07:13:15;;;;;;;104.78;49.20;;;8.60;99.90;;;;;;4918176;29;20055;-74
2022/01/03 07:21:10;;;;;;;105.13;45.25;;;8.60;99.90;;;;;;4918098;29;20420;-75
2022/01/03 07:23:36;;;;;;;91.00;47.20;;;8.70;99.90;;;;;;4918438;29;20032;-75
2022/01/03 07:26:02;;;;;;;90.85;44.22;;;8.70;99.90;;;;;;4918366;29;20122;-75
2022/01/03 07:28:28;;;;;;;95.72;45.83;;;8.70;99.90;;;;;;4917725;29;20028;-75
2022/01/03 07:30:53;;;;;;;89.53;44.75;;;8.70;99.90;;;;;;4901263;29;20149;-74
2022/01/03 07:33:19;;;;;;;90.43;46.22;;;8.70;99.90;;;;;;4918081;29;20039;-75
2022/01/03 07:35:45;;;;;;;93.65;44.40;;;8.70;99.90;;;;;;4918038;29;20491;-75
2022/01/03 07:38:10;;;;;;;97.65;46.03;;;8.70;99.90;;;;;;4918085;29;20051;-75
2022/01/03 07:40:36;;;;;;;91.28;43.80;;;8.70;99.90;;;;;;4917907;29;20035;-75
2022/01/03 07:43:02;;;;;;;95.75;46.10;;;8.70;99.90;;;;;;4918114;29;20028;-75
2022/01/03 07:45:28;;;;;;;87.97;47.05;;;8.70;99.90;;;;;;4917786;29;20028;-75
2022/01/03 07:47:54;;;;;;;98.00;47.88;;;8.80;99.90;;;;;;4917712;29;20035;-75
2022/01/03 07:50:20;;;;;;;95.53;47.03;;;8.80;99.90;;;;;;4918025;29;20389;-75
2022/01/03 07:52:45;;;;;;;98.53;46.38;;;8.80;99.90;;;;;;4917939;29;20504;-74
2022/01/03 07:55:13;;;;;;;95.97;46.08;;;8.80;99.90;;;;;;4917858;29;20020;-75
2022/01/03 07:57:39;;;;;;;92.68;46.53;;;8.80;99.90;;;;;;4917706;29;20115;-75
2022/01/03 08:00:11;;;;;;;87.95;45.28;;;8.80;99.90;;;;;;4917411;29;20028;-75
2022/01/03 08:02:38;;;;;;;97.03;47.55;;;8.80;99.90;;;;;;4917550;29;20111;-75
2022/01/03 08:05:06;;;;;;;96.25;47.15;;;8.80;99.90;;;;;;4900676;29;20444;-75
2022/01/03 08:07:31;;;;;;;97.43;49.25;;;8.90;99.90;;;;;;4917750;29;20032;-75
2022/01/03 08:09:57;;;;;;;98.63;49.42;;;8.80;99.90;;;;;;4917314;29;20434;-75
2022/01/03 08:12:23;;;;;;;95.65;46.65;;;8.90;99.90;;;;;;4917297;29;20388;-75
2022/01/03 08:14:48;;;;;;;101.72;48.42;;;8.90;99.90;;;;;;4917697;29;20056;-75
2022/01/03 08:17:14;;;;;;;97.45;50.60;;;8.90;99.90;;;;;;4916918;29;20437;-75
2022/01/03 08:19:40;;;;;;;107.15;51.90;;;8.90;99.90;;;;;;4917063;29;20048;-75
2022/01/03 08:22:05;;;;;;;102.43;49.35;;;8.90;99.90;;;;;;4917071;29;20032;-74
2022/01/03 08:24:31;;;;;;;114.00;51.17;;;8.90;99.90;;;;;;4917080;29;20039;-75
2022/01/03 08:26:57;;;;;;;103.20;50.50;;;8.90;99.90;;;;;;4917058;29;20036;-75
2022/01/03 08:29:23;;;;;;;110.47;51.03;;;8.90;99.90;;;;;;4917189;29;20024;-74
2022/01/03 08:31:49;;;;;;;101.05;49.90;;;8.90;99.90;;;;;;4916445;29;20039;-75
2022/01/03 08:34:15;;;;;;;103.03;51.75;;;8.90;99.90;;;;;;4916763;29;20028;-74
2022/01/03 08:36:41;;;;;;;113.43;53.50;;;8.90;99.90;;;;;;4916622;29;20032;-75
2022/01/03 08:39:06;;;;;;;124.47;56.03;;;8.90;99.90;;;;;;4916018;29;20028;-75
2022/01/03 08:41:32;;;;;;;112.80;53.75;;;8.90;99.90;;;;;;4916950;29;20147;-75
2022/01/03 08:43:58;;;;;;;116.57;53.47;;;8.90;99.90;;;;;;4916967;29;20035;-75
2022/01/03 08:46:24;;;;;;;113.22;53.72;;;8.90;99.90;;;;;;4916773;29;20036;-74
2022/01/03 08:48:54;;;;;;;111.68;54.03;;;9.00;99.90;;;;;;4916531;29;20083;-74
2022/01/03 08:51:20;;;;;;;112.18;56.92;;;9.00;99.90;;;;;;4916647;29;20028;-75
2022/01/03 08:53:46;;;;;;;111.18;55.42;;;9.00;99.90;;;;;;4916580;29;20102;-75
2022/01/03 08:56:12;;;;;;;105.30;55.60;;;9.00;99.90;;;;;;4916080;29;20024;-75
2022/01/03 08:58:38;;;;;;;113.15;57.70;;;9.00;99.90;;;;;;4916212;29;20028;-75
2022/01/03 09:01:04;;;;;;;121.82;59.47;;;9.00;99.90;;;;;;4916799;29;20034;-75
2022/01/03 09:03:30;;;;;;;129.75;64.18;;;9.00;99.90;;;;;;4916887;29;20032;-75
2022/01/03 09:05:56;;;;;;;124.53;61.85;;;9.00;99.90;;;;;;4917085;29;20043;-75
2022/01/03 09:08:23;;;;;;;124.97;62.33;;;9.00;99.90;;;;;;4915621;29;20024;-75
2022/01/03 09:10:50;;;;;;;121.20;62.47;;;9.00;99.90;;;;;;4915477;29;20031;-76
2022/01/03 09:13:17;;;;;;;139.27;68.75;;;9.00;99.90;;;;;;4932153;29;20087;-75
2022/01/03 09:15:46;;;;;;;138.10;64.15;;;9.00;99.90;;;;;;4905785;29;20023;-75
2022/01/03 09:18:12;;;;;;;144.23;62.35;;;9.00;99.90;;;;;;4916159;29;20053;-74
2022/01/03 09:20:38;;;;;;;144.30;62.92;;;9.00;99.90;;;;;;4918340;29;20498;-75
2022/01/03 09:23:18;;;;;;;169.95;65.30;;;9.00;99.90;;;;;;4928157;29;20116;-75
2022/01/03 09:31:12;;;;;;;165.02;61.50;;;9.00;99.90;;;;;;4935504;29;20054;-75
2022/01/03 09:33:38;;;;;;;158.63;62.63;;;9.00;99.90;;;;;;4935019;29;20045;-75
2022/01/03 09:36:04;;;;;;;155.30;62.88;;;9.00;99.90;;;;;;4935233;29;20059;-75
2022/01/03 09:38:29;;;;;;;183.48;64.85;;;9.00;99.90;;;;;;4917803;29;20035;-75
2022/01/03 09:41:00;;;;;;;150.40;60.90;;;9.00;99.90;;;;;;4924377;29;20081;-75
2022/01/03 09:43:27;;;;;;;161.98;62.50;;;9.00;99.90;;;;;;4918166;29;20032;-75
2022/01/03 09:45:54;;;;;;;166.38;63.35;;;8.90;99.90;;;;;;4916182;29;20087;-75
2022/01/03 09:48:22;;;;;;;171.52;62.20;;;9.00;99.90;;;;;;4915642;29;20485;-75
2022/01/03 09:50:49;;;;;;;172.88;64.80;;;8.90;99.90;;;;;;4900491;29;20115;-75
2022/01/03 09:53:19;;;;;;;162.93;63.55;;;8.90;99.90;;;;;;4922195;29;20035;-75
2022/01/03 09:55:46;;;;;;;170.85;65.65;;;8.90;99.90;;;;;;4919558;29;20032;-75
2022/01/03 09:58:14;;;;;;;157.15;64.13;;;8.90;99.90;;;;;;4919301;29;20028;-75
2022/01/03 10:00:41;;;;;;;166.90;72.07;;;8.90;99.90;;;;;;4922889;29;20465;-75
2022/01/03 10:03:06;;;;;;;167.07;71.63;;;8.90;99.90;;;;;;4930091;29;20127;-75
2022/01/03 10:05:33;;;;;;;158.00;68.60;;;8.90;99.90;;;;;;4921830;29;20527;-75
2022/01/03 10:07:59;;;;;;;155.00;67.97;;;8.90;99.90;;;;;;4919075;29;20028;-75
2022/01/03 10:10:27;;;;;;;163.45;69.50;;;8.90;99.90;;;;;;4922333;29;20028;-75
2022/01/03 10:12:53;;;;;;;169.90;68.72;;;8.90;99.90;;;;;;4929882;29;20020;-75
2022/01/03 10:15:18;;;;;;;141.88;63.42;;;8.90;99.90;;;;;;4919791;29;20487;-75
2022/01/03 10:17:46;;;;;;;162.20;63.15;;;8.90;99.90;;;;;;4924392;29;20023;-75
2022/01/03 10:20:14;;;;;;;171.32;65.07;;;8.90;99.90;;;;;;4937006;29;20452;-75
2022/01/03 10:22:41;;;;;;;177.20;62.47;;;8.90;99.90;;;;;;4935905;29;20020;-75
2022/01/03 10:25:18;;;;;;;175.55;61.17;;;8.90;99.90;;;;;;4918839;29;20023;-74
2022/01/03 10:27:55;;;;;;;179.60;62.90;;;8.90;99.90;;;;;;4918311;29;20473;-75
2022/01/03 10:30:40;;;;;;;180.02;60.50;;;8.90;99.90;;;;;;4937643;29;20043;-75
2022/01/03 10:33:13;;;;;;;175.23;60.65;;;8.90;99.90;;;;;;4937613;29;20388;-75
2022/01/03 10:35:51;;;;;;;174.95;60.45;;;8.90;99.90;;;;;;4926044;29;20020;-76
2022/01/03 10:38:37;;;;;;;193.45;63.35;;;8.90;99.90;;;;;;4934247;29;20057;-75
2022/01/03 10:41:15;;;;;;;177.85;60.13;;;8.90;99.90;;;;;;4918544;29;20028;-75
2022/01/03 10:43:43;;;;;;;190.85;63.58;;;8.90;99.90;;;;;;4926936;29;20123;-75
2022/01/03 10:46:29;;;;;;;168.50;58.33;;;8.90;99.90;;;;;;4937548;29;20032;-75
2022/01/03 10:49:10;;;;;;;179.77;62.72;;;8.90;99.90;;;;;;4906013;29;20381;-75
2022/01/03 10:51:35;;;;;;;197.43;63.20;;;9.00;99.90;;;;;;4918793;29;20024;-75
2022/01/03 10:54:01;;;;;;;187.63;64.70;;;9.00;99.90;;;;;;4919166;29;20031;-75
2022/01/03 10:56:42;;;;;;;190.55;65.25;;;8.90;99.90;;;;;;4918228;29;20020;-75
2022/01/03 10:59:21;;;;;;;221.60;68.18;;;8.90;99.90;;;;;;4923786;29;20070;-75
2022/01/03 11:02:01;;;;;;;201.73;65.82;;;8.90;99.90;;;;;;4922924;29;20472;-75
2022/01/03 11:04:48;;;;;;;218.80;66.65;;;8.90;99.90;;;;;;4926804;29;20039;-74
2022/01/03 11:13:01;;;;;;;196.50;62.45;;;8.90;99.90;;;;;;4920315;29;20043;-75
2022/01/03 11:15:27;;;;;;;211.13;66.03;;;8.90;99.90;;;;;;4923181;29;20024;-75
2022/01/03 11:18:06;;;;;;;222.90;68.00;;;8.90;99.90;;;;;;4920238;29;20039;-74
2022/01/03 11:20:33;;;;;;;215.10;66.75;;;8.90;99.90;;;;;;4917934;29;20117;-74
2022/01/03 11:23:00;;;;;;;216.30;67.72;;;8.90;99.90;;;;;;4919667;29;20031;-75
2022/01/03 11:25:33;;;;;;;221.40;70.13;;;8.90;99.90;;;;;;4924939;29;20039;-75
2022/01/03 11:28:03;;;;;;;211.65;66.60;;;8.90;99.90;;;;;;4917622;29;20034;-75
2022/01/03 11:30:29;;;;;;;210.73;64.57;;;8.90;99.90;;;;;;4919974;29;20047;-75
2022/01/03 11:32:56;;;;;;;216.18;68.38;;;9.00;99.90;;;;;;4917517;29;20473;-76
2022/01/03 11:35:22;;;;;;;216.43;68.22;;;9.00;99.90;;;;;;4920155;29;20035;-76
2022/01/03 11:37:50;;;;;;;207.27;69.15;;;9.00;99.90;;;;;;4900121;29;20016;-75
2022/01/03 11:40:17;;;;;;;218.75;68.80;;;9.00;99.90;;;;;;4919740;29;20082;-74
2022/01/03 11:42:44;;;;;;;230.00;70.07;;;9.00;99.90;;;;;;4920040;29;20050;-75
2022/01/03 11:45:10;;;;;;;240.00;71.95;;;9.00;99.90;;;;;;4908296;29;20111;-75
2022/01/03 11:47:37;;;;;;;215.00;72.15;;;9.00;99.90;;;;;;4920018;29;20080;-75
2022/01/03 11:50:05;;;;;;;217.02;70.40;;;9.00;99.90;;;;;;4916896;29;20084;-75
2022/01/03 11:52:36;;;;;;;214.88;67.20;;;9.00;99.90;;;;;;4916868;29;20040;-75
2022/01/03 11:55:04;;;;;;;204.55;67.05;;;9.00;99.90;;;;;;4917008;29;20068;-74
2022/01/03 11:57:56;;;;;;;206.50;68.68;;;9.00;99.90;;;;;;4917285;29;20096;-74
2022/01/03 12:03:54;;;;;;;224.25;70.57;;;9.00;99.90;;;;;;4898290;29;20147;-75
2022/01/03 12:06:04;;;;;;;236.07;73.13;;;9.00;99.90;;;;;;4909934;29;20115;-75
2022/01/03 12:08:33;;;;;;;231.38;73.03;;;9.00;99.90;;;;;;4916316;29;20080;-76
2022/01/03 12:11:00;;;;;;;230.38;73.60;;;9.10;99.90;;;;;;4916665;29;20059;-74
2022/01/03 12:13:57;;;;;;;229.23;71.40;;;9.00;99.90;;;;;;4916022;29;20084;-75
2022/01/03 12:16:48;;;;;;;248.13;76.55;;;9.00;99.90;;;;;;4916880;29;20035;-78
2022/01/03 12:19:36;;;;;;;250.00;76.10;;;9.00;99.90;;;;;;4916209;29;20020;-75
2022/01/03 12:22:19;;;;;;;228.13;73.13;;;9.00;99.90;;;;;;4916257;29;20044;-75
2022/01/03 12:24:50;;;;;;;229.93;75.30;;;9.00;99.90;;;;;;4932893;29;20078;-75
2022/01/03 12:27:16;;;;;;;268.73;92.80;;;9.00;99.90;;;;;;4934193;29;20035;-75
2022/01/03 12:29:54;;;;;;;229.35;76.53;;;8.90;99.90;;;;;;4931191;29;20458;-75
2022/01/03 12:32:22;;;;;;;228.65;74.32;;;8.90;99.90;;;;;;4915892;29;20032;-74
2022/01/03 12:35:10;;;;;;;237.13;74.03;;;9.00;99.90;;;;;;4915799;29;20020;-75
2022/01/03 12:37:47;;;;;;;212.63;72.80;;;9.00;99.90;;;;;;4933636;29;20054;-75
2022/01/03 12:40:21;;;;;;;245.32;75.50;;;9.00;99.90;;;;;;4932470;29;21618;-74
2022/01/03 12:42:53;;;;;;;227.25;75.93;;;9.00;99.90;;;;;;4930181;29;20024;-75
2022/01/03 12:45:34;;;;;;;215.00;74.05;;;9.00;99.90;;;;;;4919723;29;20074;-75
2022/01/03 12:48:11;;;;;;;220.18;74.32;;;9.00;99.90;;;;;;4917258;29;20032;-73
2022/01/03 12:50:44;;;;;;;221.13;74.65;;;9.10;99.90;;;;;;4926478;29;20510;-74
2022/01/03 12:53:32;;;;;;;223.25;75.88;;;9.10;99.90;;;;;;4918530;29;20065;-75
2022/01/03 12:56:02;;;;;;;227.77;77.35;;;9.10;99.90;;;;;;4920467;29;20039;-75
2022/01/03 12:58:28;;;;;;;229.13;79.03;;;9.10;99.90;;;;;;4915382;29;20471;-74
2022/01/03 13:00:55;;;;;;;244.25;80.28;;;9.20;99.90;;;;;;4904760;29;20031;-74
2022/01/03 13:03:39;;;;;;;237.30;76.70;;;9.20;99.90;;;;;;4898201;29;20032;-73